createdAt,value
2022-08-03T00:00:01.260Z,88.8
2022-08-03T00:01:00.432Z,88.7
2022-08-03T00:02:00.575Z,88.1
2022-08-03T00:03:00.769Z,88.2
2022-08-03T00:04:00.875Z,88.4
2022-08-03T00:05:01.029Z,88.8
2022-08-03T00:06:04.673Z,88.8
2022-08-03T00:07:00.346Z,89
2022-08-03T00:08:00.483Z,88.9
2022-08-03T00:09:00.642Z,88.7
2022-08-03T00:10:00.787Z,88.9
2022-08-03T00:11:00.947Z,89
2022-08-03T00:12:01.115Z,89.3
2022-08-03T00:13:01.257Z,88.8
2022-08-03T00:14:00.406Z,88.7
2022-08-03T00:15:00.559Z,88.9
2022-08-03T00:16:00.716Z,89.3
2022-08-03T00:17:00.882Z,89.3
2022-08-03T00:18:01.004Z,89
2022-08-03T00:19:01.190Z,88.9
2022-08-03T00:20:00.322Z,88.9
2022-08-03T00:21:00.458Z,89.1
2022-08-03T00:22:00.640Z,89
2022-08-03T00:23:00.764Z,89.1
2022-08-03T00:24:00.926Z,88.9
2022-08-03T00:25:01.076Z,89.1
2022-08-03T00:26:01.238Z,89.2
2022-08-03T00:27:00.414Z,88.9
2022-08-03T00:28:00.552Z,89.2
2022-08-03T00:29:00.700Z,89
2022-08-03T00:30:00.876Z,89
2022-08-03T00:31:01.027Z,89.3
2022-08-03T00:32:01.209Z,89.2
2022-08-03T00:33:00.330Z,89.3
2022-08-03T00:34:03.371Z,89.4
2022-08-03T00:35:00.626Z,89.3
2022-08-03T00:36:00.776Z,89.4
2022-08-03T00:37:00.955Z,89.4
2022-08-03T00:38:01.092Z,89.5
2022-08-03T00:39:01.243Z,89.5
2022-08-03T00:40:00.402Z,89.4
2022-08-03T00:41:00.552Z,89.5
2022-08-03T00:42:00.735Z,89.5
2022-08-03T00:43:00.847Z,89.6
2022-08-03T00:44:01.001Z,89.6
2022-08-03T00:45:01.149Z,89.6
2022-08-03T00:46:00.309Z,89.6
2022-08-03T00:47:00.473Z,89.6
2022-08-03T00:48:00.602Z,89.6
2022-08-03T00:49:00.824Z,89.6
2022-08-03T00:50:00.910Z,89.6
2022-08-03T00:51:01.062Z,89.7
2022-08-03T00:52:01.243Z,89.7
2022-08-03T00:53:00.372Z,89.6
2022-08-03T00:54:00.526Z,89.6
2022-08-03T00:55:00.662Z,89.7
2022-08-03T00:56:00.836Z,89.9
2022-08-03T00:57:00.996Z,89.8
2022-08-03T00:58:01.134Z,89.8
2022-08-03T00:59:00.305Z,89.7
2022-08-03T01:00:00.448Z,89.6
2022-08-03T01:01:00.641Z,89.4
2022-08-03T01:02:00.739Z,89.5
2022-08-03T01:03:00.891Z,89.5
2022-08-03T01:04:01.057Z,89.5
2022-08-03T01:05:01.242Z,89.6
2022-08-03T01:06:00.353Z,89.7
2022-08-03T01:07:00.504Z,89.6
2022-08-03T01:08:00.662Z,89.5
2022-08-03T01:09:00.817Z,89.7
2022-08-03T01:10:00.985Z,90
2022-08-03T01:11:01.135Z,89.9
2022-08-03T01:12:01.700Z,89.8
2022-08-03T01:13:00.431Z,90
2022-08-03T01:14:04.551Z,89.9
2022-08-03T01:15:00.769Z,90.1
2022-08-03T01:16:00.911Z,89.9
2022-08-03T01:17:01.060Z,89.9
2022-08-03T01:18:01.209Z,89.9
2022-08-03T01:19:00.361Z,89.9
2022-08-03T01:20:00.524Z,89.9
2022-08-03T01:21:00.679Z,89.9
2022-08-03T01:22:00.814Z,89.9
2022-08-03T01:23:00.982Z,90
2022-08-03T01:24:01.130Z,89.8
2022-08-03T01:25:00.272Z,89.8
2022-08-03T01:26:00.450Z,89.5
2022-08-03T01:27:00.588Z,89.4
2022-08-03T01:28:00.742Z,89.6
2022-08-03T01:29:00.898Z,89.9
2022-08-03T01:30:01.049Z,89.8
2022-08-03T01:31:01.216Z,89.9
2022-08-03T01:32:58.411Z,90.1
2022-08-03T01:33:01.883Z,90.2
2022-08-03T01:34:00.692Z,90
2022-08-03T01:35:00.850Z,89.8
2022-08-03T01:36:01.027Z,89.9
2022-08-03T01:37:01.177Z,89.9
2022-08-03T01:38:00.306Z,90
2022-08-03T01:39:00.481Z,90
2022-08-03T01:40:00.603Z,90.4
2022-08-03T01:41:00.756Z,90.5
2022-08-03T01:42:00.929Z,90.2
2022-08-03T01:43:01.055Z,90.1
2022-08-03T01:44:29.220Z,90
2022-08-03T01:45:00.359Z,90.2
2022-08-03T01:46:00.513Z,89.9
2022-08-03T01:47:00.681Z,90
2022-08-03T01:48:00.814Z,90.1
2022-08-03T01:49:01.039Z,89.8
2022-08-03T01:50:01.116Z,89.6
2022-08-03T01:51:00.255Z,89.9
2022-08-03T01:52:05.044Z,89.5
2022-08-03T01:53:00.566Z,89.6
2022-08-03T01:54:00.723Z,89.7
2022-08-03T01:55:00.883Z,89.6
2022-08-03T01:56:01.024Z,89.6
2022-08-03T01:57:01.198Z,89.8
2022-08-03T01:58:06.268Z,90.3
2022-08-03T01:59:00.481Z,90.4
2022-08-03T02:00:00.617Z,90
2022-08-03T02:01:00.822Z,89.9
2022-08-03T02:02:32.023Z,89.9
2022-08-03T02:03:01.102Z,90
2022-08-03T02:04:01.351Z,90.3
2022-08-03T02:05:00.366Z,90
2022-08-03T02:07:00.215Z,90
2022-08-03T02:07:03.065Z,90.3
2022-08-03T02:08:00.843Z,90.5
2022-08-03T02:09:00.987Z,90.3
2022-08-03T02:10:01.140Z,90.4
2022-08-03T02:11:00.281Z,90.5
2022-08-03T02:12:00.438Z,90.6
2022-08-03T02:13:00.610Z,90.3
2022-08-03T02:14:00.723Z,90.2
2022-08-03T02:15:01.040Z,89.9
2022-08-03T02:16:01.036Z,89.9
2022-08-03T02:17:01.215Z,90
2022-08-03T02:18:00.355Z,90.2
2022-08-03T02:19:00.485Z,90.4
2022-08-03T02:20:00.653Z,90.4
2022-08-03T02:21:00.805Z,90.6
2022-08-03T02:22:01.838Z,90.8
2022-08-03T02:23:01.138Z,90.9
2022-08-03T02:24:00.271Z,90.7
2022-08-03T02:25:00.433Z,90.3
2022-08-03T02:26:01.920Z,90
2022-08-03T02:27:00.743Z,90.4
2022-08-03T02:28:00.915Z,90.4
2022-08-03T02:29:01.083Z,90.4
2022-08-03T02:30:01.191Z,90.5
2022-08-03T02:31:00.342Z,90.3
2022-08-03T02:32:00.507Z,90.5
2022-08-03T02:33:00.661Z,90.2
2022-08-03T02:34:00.827Z,90.5
2022-08-03T02:35:00.955Z,90.3
2022-08-03T02:36:01.140Z,89.7
2022-08-03T02:37:00.274Z,89.5
2022-08-03T02:38:00.424Z,89.6
2022-08-03T02:39:00.584Z,89.6
2022-08-03T02:40:00.716Z,89.9
2022-08-03T02:41:00.867Z,90.2
2022-08-03T02:42:01.014Z,90.1
2022-08-03T02:43:01.161Z,90.2
2022-08-03T02:44:06.995Z,89.9
2022-08-03T02:45:00.473Z,90.1
2022-08-03T02:46:00.620Z,90.6
2022-08-03T02:47:00.769Z,90.7
2022-08-03T02:48:00.927Z,90.4
2022-08-03T02:49:01.142Z,90.5
2022-08-03T02:50:01.279Z,90.5
2022-08-03T02:51:00.376Z,90.2
2022-08-03T02:52:00.529Z,90.2
2022-08-03T02:53:00.687Z,89.9
2022-08-03T02:54:00.883Z,89.8
2022-08-03T02:55:01.016Z,89.5
2022-08-03T02:56:01.142Z,89.7
2022-08-03T02:57:00.301Z,89.7
2022-08-03T02:58:01.664Z,89.8
2022-08-03T02:59:00.633Z,89.9
2022-08-03T03:00:00.764Z,90.1
2022-08-03T03:01:00.966Z,89.8
2022-08-03T03:02:01.066Z,90
2022-08-03T03:03:01.220Z,90.3
2022-08-03T03:04:00.412Z,90.5
2022-08-03T03:05:55.589Z,90.7
2022-08-03T03:06:00.694Z,90.8
2022-08-03T03:07:01.682Z,91
2022-08-03T03:08:01.000Z,91.1
2022-08-03T03:09:01.180Z,91
2022-08-03T03:10:00.307Z,90.8
2022-08-03T03:11:00.475Z,91
2022-08-03T03:12:00.623Z,91
2022-08-03T03:13:00.772Z,91
2022-08-03T03:14:00.958Z,91.1
2022-08-03T03:15:01.074Z,91
2022-08-03T03:16:01.238Z,91.3
2022-08-03T03:17:00.383Z,91.4
2022-08-03T03:18:00.533Z,91.4
2022-08-03T03:19:00.714Z,91.1
2022-08-03T03:20:00.839Z,91.2
2022-08-03T03:21:00.991Z,91
2022-08-03T03:22:01.141Z,90.9
2022-08-03T03:23:00.385Z,90.9
2022-08-03T03:24:00.463Z,91.2
2022-08-03T03:25:00.622Z,91
2022-08-03T03:26:00.750Z,91.3
2022-08-03T03:27:00.912Z,91.2
2022-08-03T03:28:01.100Z,90.7
2022-08-03T03:29:01.217Z,90.8
2022-08-03T03:30:00.386Z,90.8
2022-08-03T03:31:00.511Z,90.7
2022-08-03T03:32:00.671Z,90.8
2022-08-03T03:33:00.842Z,90.9
2022-08-03T03:34:00.982Z,90.8
2022-08-03T03:35:01.159Z,91
2022-08-03T03:36:00.285Z,91
2022-08-03T03:37:00.439Z,91
2022-08-03T03:38:00.593Z,91
2022-08-03T03:39:15.581Z,91
2022-08-03T03:40:00.901Z,91
2022-08-03T03:41:01.047Z,91.1
2022-08-03T03:42:01.188Z,91.1
2022-08-03T03:43:00.335Z,91.1
2022-08-03T03:44:00.486Z,91.2
2022-08-03T03:45:00.664Z,91.1
2022-08-03T03:46:00.788Z,91.2
2022-08-03T03:47:00.955Z,91.3
2022-08-03T03:48:01.108Z,91.3
2022-08-03T03:50:00.388Z,91.4
2022-08-03T03:51:00.516Z,91.4
2022-08-03T03:52:00.669Z,91.4
2022-08-03T03:53:00.815Z,91.4
2022-08-03T03:54:00.978Z,91.3
2022-08-03T03:55:01.752Z,91.2
2022-08-03T03:56:02.887Z,91.2
2022-08-03T03:57:00.429Z,91.1
2022-08-03T03:58:00.580Z,91.6
2022-08-03T03:59:00.736Z,91.4
2022-08-03T04:00:00.899Z,91.3
2022-08-03T04:01:01.164Z,91.5
2022-08-03T04:02:01.195Z,91.3
2022-08-03T04:03:00.348Z,91.3
2022-08-03T04:04:00.504Z,91.3
2022-08-03T04:05:00.665Z,91.1
2022-08-03T04:06:00.827Z,91.1
2022-08-03T04:07:00.954Z,91.2
2022-08-03T04:08:01.112Z,91.3
2022-08-03T04:09:00.266Z,91.2
2022-08-03T04:10:08.855Z,91.1
2022-08-03T04:11:00.574Z,91
2022-08-03T04:12:00.735Z,91
2022-08-03T04:13:00.870Z,91.2
2022-08-03T04:14:01.955Z,91.4
2022-08-03T04:15:01.185Z,91.5
2022-08-03T04:16:00.323Z,91.5
2022-08-03T04:17:00.475Z,91.5
2022-08-03T04:18:00.642Z,91.5
2022-08-03T04:19:00.772Z,91.3
2022-08-03T04:20:00.935Z,91.3
2022-08-03T04:21:01.082Z,91.3
2022-08-03T04:22:01.237Z,91.4
2022-08-03T04:23:00.417Z,91.5
2022-08-03T04:24:00.535Z,91.6
2022-08-03T04:25:00.683Z,91.6
2022-08-03T04:26:00.833Z,91.8
2022-08-03T04:27:00.986Z,91.7
2022-08-03T04:28:19.683Z,91.5
2022-08-03T04:29:00.291Z,91.6
2022-08-03T04:30:00.439Z,91.5
2022-08-03T04:31:00.599Z,91.7
2022-08-03T04:32:00.743Z,91.8
2022-08-03T04:33:00.919Z,91.9
2022-08-03T04:34:01.052Z,92.2
2022-08-03T04:35:01.218Z,91.9
2022-08-03T04:36:02.921Z,91.4
2022-08-03T04:37:00.524Z,91.5
2022-08-03T04:38:00.686Z,91.5
2022-08-03T04:39:00.833Z,91.4
2022-08-03T04:40:00.961Z,91.5
2022-08-03T04:41:01.150Z,91.5
2022-08-03T04:42:04.675Z,91.5
2022-08-03T04:43:00.435Z,91.6
2022-08-03T04:44:00.561Z,91.4
2022-08-03T04:45:01.797Z,91.1
2022-08-03T04:46:00.876Z,91.2
2022-08-03T04:47:01.037Z,91.4
2022-08-03T04:48:02.113Z,91.6
2022-08-03T04:49:00.381Z,91.6
2022-08-03T04:50:00.478Z,91.8
2022-08-03T04:51:00.645Z,91.8
2022-08-03T04:52:00.793Z,91.9
2022-08-03T04:53:00.972Z,91.9
2022-08-03T04:54:01.099Z,92
2022-08-03T04:55:01.252Z,92.1
2022-08-03T04:56:01.303Z,92.2
2022-08-03T04:57:00.557Z,92.4
2022-08-03T04:58:00.740Z,92.4
2022-08-03T04:59:00.897Z,92.5
2022-08-03T05:00:03.617Z,92.5
2022-08-03T05:01:01.175Z,92.5
2022-08-03T05:02:00.416Z,92.6
2022-08-03T05:03:00.490Z,92.6
2022-08-03T05:04:00.667Z,92.7
2022-08-03T05:05:00.829Z,92.7
2022-08-03T05:06:09.436Z,92.8
2022-08-03T05:07:11.736Z,92.8
2022-08-03T05:09:00.407Z,92.6
2022-08-03T05:10:03.070Z,92.5
2022-08-03T05:11:00.676Z,92.4
2022-08-03T05:12:00.845Z,92.3
2022-08-03T05:13:01.000Z,92.2
2022-08-03T05:14:01.177Z,92.1
2022-08-03T05:15:00.326Z,92
2022-08-03T05:16:00.477Z,91.9
2022-08-03T05:17:00.641Z,91.7
2022-08-03T05:18:00.781Z,91.6
2022-08-03T05:19:00.967Z,91.5
2022-08-03T05:20:01.093Z,91.5
2022-08-03T05:21:01.230Z,91.4
2022-08-03T05:22:00.376Z,91.3
2022-08-03T05:23:00.539Z,91.1
2022-08-03T05:24:00.712Z,91.1
2022-08-03T05:25:00.848Z,91
2022-08-03T05:26:00.997Z,90.9
2022-08-03T05:27:01.153Z,91
2022-08-03T05:28:00.307Z,90.5
2022-08-03T05:29:00.490Z,90.3
2022-08-03T05:30:30.726Z,90.1
2022-08-03T05:31:00.765Z,89.7
2022-08-03T05:32:03.710Z,89.3
2022-08-03T05:33:01.094Z,89
2022-08-03T05:34:01.240Z,88.8
2022-08-03T05:35:00.383Z,88.6
2022-08-03T05:36:04.294Z,88.4
2022-08-03T05:37:00.660Z,88.4
2022-08-03T05:38:00.809Z,88
2022-08-03T05:39:02.745Z,88
2022-08-03T05:40:01.129Z,87.8
2022-08-03T05:41:22.650Z,87.8
2022-08-03T05:42:00.409Z,87.5
2022-08-03T05:43:00.558Z,87.2
2022-08-03T05:44:00.714Z,87
2022-08-03T05:45:00.879Z,87
2022-08-03T05:46:11.629Z,86.8
2022-08-03T05:47:01.170Z,86.5
2022-08-03T05:48:00.307Z,86.5
2022-08-03T05:49:00.570Z,86.3
2022-08-03T05:50:00.646Z,86.3
2022-08-03T05:51:00.764Z,86.1
2022-08-03T05:52:12.937Z,85.9
2022-08-03T05:53:01.071Z,85.7
2022-08-03T05:54:01.228Z,85.6
2022-08-03T05:55:00.410Z,85.5
2022-08-03T05:56:14.610Z,85.3
2022-08-03T05:57:00.687Z,85.3
2022-08-03T05:58:00.843Z,85.2
2022-08-03T05:59:16.282Z,85.1
2022-08-03T06:00:01.157Z,84.9
2022-08-03T06:01:00.285Z,84.9
2022-08-03T06:02:00.508Z,84.5
2022-08-03T06:03:00.599Z,84.4
2022-08-03T06:04:00.758Z,84.1
2022-08-03T06:05:00.916Z,83.8
2022-08-03T06:06:01.062Z,83.7
2022-08-03T06:07:01.223Z,83.6
2022-08-03T06:08:00.360Z,83.5
2022-08-03T06:09:00.520Z,83.2
2022-08-03T06:10:35.007Z,83
2022-08-03T06:11:00.823Z,82.8
2022-08-03T06:12:00.995Z,82.6
2022-08-03T06:13:01.155Z,82.4
2022-08-03T06:14:00.282Z,82.2
2022-08-03T06:15:00.419Z,82.1
2022-08-03T06:16:00.574Z,82
2022-08-03T06:17:00.728Z,81.9
2022-08-03T06:18:02.118Z,81.6
2022-08-03T06:19:01.060Z,81.3
2022-08-03T06:20:01.186Z,81.3
2022-08-03T06:21:14.365Z,81
2022-08-03T06:22:00.476Z,80.9
2022-08-03T06:23:01.151Z,80.6
2022-08-03T06:24:00.810Z,80.6
2022-08-03T06:25:04.261Z,80.5
2022-08-03T06:26:01.097Z,80.4
2022-08-03T06:27:01.249Z,80.1
2022-08-03T06:28:00.401Z,80.1
2022-08-03T06:29:00.573Z,80
2022-08-03T06:30:00.693Z,80
2022-08-03T06:31:00.908Z,79.8
2022-08-03T06:32:00.999Z,79.7
2022-08-03T06:33:01.169Z,79.4
2022-08-03T06:34:34.096Z,79
2022-08-03T06:35:00.483Z,78.8
2022-08-03T06:36:00.610Z,78.9
2022-08-03T06:37:02.327Z,79.1
2022-08-03T06:38:00.915Z,79.2
2022-08-03T06:39:01.092Z,79.1
2022-08-03T06:40:01.245Z,78.3
2022-08-03T06:41:00.372Z,77.9
2022-08-03T06:42:00.520Z,77.8
2022-08-03T06:43:00.680Z,78.1
2022-08-03T06:44:03.014Z,77.8
2022-08-03T06:45:01.017Z,77.6
2022-08-03T06:46:01.142Z,77.6
2022-08-03T06:47:00.290Z,77.4
2022-08-03T06:48:00.447Z,77.8
2022-08-03T06:49:00.649Z,77.5
2022-08-03T06:50:16.437Z,77.4
2022-08-03T06:51:00.893Z,77.3
2022-08-03T06:52:04.595Z,77
2022-08-03T06:53:01.204Z,76.7
2022-08-03T06:54:00.355Z,76.6
2022-08-03T06:55:00.548Z,76.7
2022-08-03T06:56:00.658Z,76.5
2022-08-03T06:57:00.820Z,76.2
2022-08-03T06:58:03.459Z,76.3
2022-08-03T06:59:01.147Z,76.4
2022-08-03T07:00:07.495Z,75.4
2022-08-03T07:01:00.537Z,75.7
2022-08-03T07:02:00.609Z,75.5
2022-08-03T07:03:00.753Z,75.5
2022-08-03T07:04:00.912Z,75.4
2022-08-03T07:05:01.092Z,75.6
2022-08-03T07:06:01.215Z,75.4
2022-08-03T07:07:00.374Z,75.2
2022-08-03T07:08:00.520Z,75.7
2022-08-03T07:09:00.690Z,75.8
2022-08-03T07:10:00.863Z,75.8
2022-08-03T07:11:00.991Z,75.2
2022-08-03T07:12:01.157Z,74.6
2022-08-03T07:13:00.303Z,74.5
2022-08-03T07:14:00.458Z,75.1
2022-08-03T07:15:01.889Z,74.5
2022-08-03T07:16:00.751Z,74.4
2022-08-03T07:17:00.913Z,74.5
2022-08-03T07:18:01.100Z,74.2
2022-08-03T07:19:01.248Z,74.3
2022-08-03T07:20:00.455Z,74.2
2022-08-03T07:21:00.551Z,74.2
2022-08-03T07:22:02.162Z,74
2022-08-03T07:23:00.872Z,74.1
2022-08-03T07:24:01.011Z,74.1
2022-08-03T07:25:01.158Z,73.7
2022-08-03T07:26:00.322Z,73.8
2022-08-03T07:27:00.463Z,74
2022-08-03T07:28:00.653Z,73.6
2022-08-03T07:29:00.780Z,73.1
2022-08-03T07:30:00.919Z,73.4
2022-08-03T07:31:01.073Z,73.8
2022-08-03T07:32:01.225Z,74.1
2022-08-03T07:33:00.384Z,73.9
2022-08-03T07:34:00.562Z,74
2022-08-03T07:35:01.369Z,74.2
2022-08-03T07:36:00.836Z,75.3
2022-08-03T07:37:00.976Z,74.2
2022-08-03T07:38:01.130Z,74
2022-08-03T07:39:00.300Z,73.7
2022-08-03T07:40:00.444Z,74.3
2022-08-03T07:41:00.591Z,74.5
2022-08-03T07:42:00.745Z,73.6
2022-08-03T07:43:00.899Z,74
2022-08-03T07:44:01.061Z,73.7
2022-08-03T07:45:01.200Z,73.6
2022-08-03T07:46:00.354Z,73.4
2022-08-03T07:47:03.229Z,72.9
2022-08-03T07:48:00.653Z,72.9
2022-08-03T07:49:00.924Z,73
2022-08-03T07:50:00.958Z,73.8
2022-08-03T07:51:01.124Z,73.5
2022-08-03T07:52:00.276Z,73.7
2022-08-03T07:53:00.434Z,74.5
2022-08-03T07:54:00.604Z,73.7
2022-08-03T07:55:00.729Z,73.9
2022-08-03T07:56:00.878Z,73.5
2022-08-03T07:57:01.030Z,70.4
2022-08-03T07:58:01.176Z,68.5
2022-08-03T07:59:00.326Z,68
2022-08-03T08:00:02.245Z,69.5
2022-08-03T08:01:00.692Z,70.5
2022-08-03T08:02:00.775Z,71.6
2022-08-03T08:03:00.928Z,71
2022-08-03T08:04:01.092Z,70.5
2022-08-03T08:05:05.473Z,71.5
2022-08-03T08:06:00.390Z,71
2022-08-03T08:07:00.562Z,71.5
2022-08-03T08:08:00.726Z,70.8
2022-08-03T08:09:00.887Z,70.7
2022-08-03T08:10:01.055Z,69.7
2022-08-03T08:11:01.198Z,70.3
2022-08-03T08:12:00.336Z,69.5
2022-08-03T08:13:00.488Z,66.6
2022-08-03T08:14:00.646Z,68.2
2022-08-03T08:15:00.810Z,68.7
2022-08-03T08:16:00.947Z,68
2022-08-03T08:17:04.458Z,69.2
2022-08-03T08:18:01.253Z,67.4
2022-08-03T08:19:00.399Z,68.1
2022-08-03T08:20:00.588Z,68.5
2022-08-03T08:21:00.719Z,66.8
2022-08-03T08:22:02.860Z,67
2022-08-03T08:23:01.425Z,67
2022-08-03T08:24:01.169Z,68
2022-08-03T08:25:01.325Z,67.6
2022-08-03T08:26:00.462Z,66.4
2022-08-03T08:27:00.630Z,66.4
2022-08-03T08:28:29.184Z,66.7
2022-08-03T08:29:00.952Z,68
2022-08-03T08:30:10.192Z,68.6
2022-08-03T08:31:01.256Z,67.6
2022-08-03T08:32:00.397Z,66.6
2022-08-03T08:33:00.551Z,64.1
2022-08-03T08:34:04.088Z,65
2022-08-03T08:35:00.892Z,63.1
2022-08-03T08:36:01.013Z,63.1
2022-08-03T08:37:01.162Z,64.1
2022-08-03T08:38:00.323Z,63.4
2022-08-03T08:39:00.480Z,64.2
2022-08-03T08:40:00.651Z,64.6
2022-08-03T08:41:00.785Z,64.6
2022-08-03T08:42:00.942Z,63.2
2022-08-03T08:43:01.102Z,62.7
2022-08-03T08:44:01.277Z,62.4
2022-08-03T08:45:00.420Z,62.7
2022-08-03T08:46:00.567Z,64.3
2022-08-03T08:47:00.721Z,63.2
2022-08-03T08:48:02.677Z,63.2
2022-08-03T08:49:04.952Z,63.5
2022-08-03T08:50:09.194Z,64.2
2022-08-03T08:51:00.357Z,62.7
2022-08-03T08:52:01.095Z,61.8
2022-08-03T08:53:00.664Z,61.3
2022-08-03T08:54:00.834Z,62.2
2022-08-03T08:55:00.974Z,60.8
2022-08-03T08:56:01.544Z,62.9
2022-08-03T08:57:00.282Z,62.8
2022-08-03T08:58:00.419Z,59.7
2022-08-03T08:59:00.567Z,59.8
2022-08-03T09:00:00.728Z,60.1
2022-08-03T09:01:00.946Z,59.9
2022-08-03T09:02:01.047Z,60.6
2022-08-03T09:03:01.175Z,59.9
2022-08-03T09:04:00.335Z,59.2
2022-08-03T09:05:05.335Z,58.6
2022-08-03T09:06:00.681Z,57.5
2022-08-03T09:07:19.191Z,58.8
2022-08-03T09:08:00.944Z,59.7
2022-08-03T09:09:01.091Z,59.1
2022-08-03T09:10:11.182Z,60.5
2022-08-03T09:11:00.415Z,59
2022-08-03T09:12:20.017Z,59.5
2022-08-03T09:13:00.701Z,58.7
2022-08-03T09:14:00.851Z,57.5
2022-08-03T09:15:16.386Z,56.3
2022-08-03T09:16:01.659Z,57.1
2022-08-03T09:17:00.337Z,57.6
2022-08-03T09:18:00.446Z,57.3
2022-08-03T09:19:00.602Z,57.3
2022-08-03T09:20:03.177Z,57.5
2022-08-03T09:21:14.738Z,59.3
2022-08-03T09:22:01.084Z,59.1
2022-08-03T09:23:01.233Z,57.8
2022-08-03T09:24:02.167Z,55.5
2022-08-03T09:25:22.957Z,56.3
2022-08-03T09:26:00.671Z,56.1
2022-08-03T09:27:00.826Z,55.6
2022-08-03T09:28:00.991Z,56.9
2022-08-03T09:29:05.617Z,55.3
2022-08-03T09:30:00.297Z,57.4
2022-08-03T09:31:00.425Z,57.4
2022-08-03T09:32:00.584Z,54.8
2022-08-03T09:33:00.757Z,56
2022-08-03T09:34:00.899Z,56.1
2022-08-03T09:35:01.054Z,55.9
2022-08-03T09:36:01.209Z,58
2022-08-03T09:37:00.361Z,56.3
2022-08-03T09:38:11.826Z,53.8
2022-08-03T09:39:00.684Z,55.9
2022-08-03T09:40:00.814Z,57.9
2022-08-03T09:41:01.154Z,55.1
2022-08-03T09:42:01.126Z,56.5
2022-08-03T09:43:00.283Z,57.3
2022-08-03T09:44:00.446Z,55.9
2022-08-03T09:45:00.576Z,55.7
2022-08-03T09:46:00.723Z,56.8
2022-08-03T09:47:00.875Z,57.3
2022-08-03T09:48:01.030Z,57
2022-08-03T09:49:01.247Z,56.9
2022-08-03T09:50:00.326Z,58.2
2022-08-03T09:51:13.152Z,55.9
2022-08-03T09:52:37.850Z,57.6
2022-08-03T09:53:00.778Z,56.7
2022-08-03T09:54:00.934Z,56.6
2022-08-03T09:55:01.108Z,57.4
2022-08-03T09:56:34.727Z,57.1
2022-08-03T09:57:00.435Z,57.6
2022-08-03T09:58:00.557Z,57.7
2022-08-03T09:59:00.719Z,58.2
2022-08-03T10:00:06.149Z,57.1
2022-08-03T10:01:01.109Z,55.2
2022-08-03T10:02:01.159Z,55
2022-08-03T10:03:00.296Z,55.3
2022-08-03T10:04:03.836Z,55.5
2022-08-03T10:05:00.600Z,55.6
2022-08-03T10:06:00.805Z,55.3
2022-08-03T10:07:00.899Z,56.9
2022-08-03T10:08:01.061Z,57
2022-08-03T10:09:01.207Z,56.3
2022-08-03T10:10:31.740Z,56.8
2022-08-03T10:11:00.563Z,56
2022-08-03T10:12:00.699Z,55.7
2022-08-03T10:13:00.859Z,55
2022-08-03T10:14:01.417Z,57.3
2022-08-03T10:15:01.166Z,56
2022-08-03T10:16:23.606Z,56
2022-08-03T10:17:00.503Z,56.4
2022-08-03T10:18:00.633Z,57.9
2022-08-03T10:19:00.776Z,55.2
2022-08-03T10:20:00.953Z,56.2
2022-08-03T10:21:01.096Z,56.4
2022-08-03T10:22:01.279Z,56.9
2022-08-03T10:23:00.402Z,57.2
2022-08-03T10:24:00.561Z,57.7
2022-08-03T10:25:00.702Z,57.8
2022-08-03T10:26:00.853Z,58.1
2022-08-03T10:27:01.035Z,59
2022-08-03T10:28:01.149Z,56.5
2022-08-03T10:29:00.306Z,57.6
2022-08-03T10:30:00.458Z,57.2
2022-08-03T10:31:00.610Z,56.7
2022-08-03T10:32:00.789Z,57.4
2022-08-03T10:33:00.931Z,57.8
2022-08-03T10:34:01.075Z,55.7
2022-08-03T10:35:04.182Z,58.1
2022-08-03T10:36:00.379Z,54.4
2022-08-03T10:37:00.550Z,55.8
2022-08-03T10:38:00.693Z,57.9
2022-08-03T10:39:00.847Z,58.7
2022-08-03T10:40:00.986Z,56.6
2022-08-03T10:41:01.147Z,55.1
2022-08-03T10:42:02.848Z,54.6
2022-08-03T10:43:00.489Z,57.1
2022-08-03T10:44:00.622Z,57.5
2022-08-03T10:45:00.776Z,57.6
2022-08-03T10:46:00.926Z,56.4
2022-08-03T10:47:01.101Z,56.2
2022-08-03T10:48:01.232Z,56.1
2022-08-03T10:49:00.470Z,56.6
2022-08-03T10:50:00.539Z,56.4
2022-08-03T10:51:00.691Z,56.7
2022-08-03T10:52:00.857Z,56.9
2022-08-03T10:53:02.071Z,55
2022-08-03T10:54:01.732Z,56
2022-08-03T10:55:00.345Z,58.1
2022-08-03T10:56:00.472Z,58.8
2022-08-03T10:57:13.663Z,56.7
2022-08-03T10:58:00.763Z,56.8
2022-08-03T10:59:00.906Z,56.7
2022-08-03T11:00:01.061Z,54.7
2022-08-03T11:01:01.249Z,54.9
2022-08-03T11:02:01.304Z,54.6
2022-08-03T11:03:00.511Z,54.2
2022-08-03T11:04:00.715Z,54.9
2022-08-03T11:05:00.788Z,54.5
2022-08-03T11:06:00.946Z,54.4
2022-08-03T11:07:01.099Z,56
2022-08-03T11:08:01.262Z,56.2
2022-08-03T11:09:00.459Z,54.7
2022-08-03T11:10:00.583Z,55.3
2022-08-03T11:11:00.746Z,55.7
2022-08-03T11:12:00.906Z,56.5
2022-08-03T11:13:01.056Z,55.2
2022-08-03T11:14:01.222Z,54.4
2022-08-03T11:15:00.362Z,55.8
2022-08-03T11:16:02.986Z,55.8
2022-08-03T11:17:00.654Z,55.9
2022-08-03T11:18:00.813Z,56.3
2022-08-03T11:19:00.980Z,56.6
2022-08-03T11:20:01.125Z,55.8
2022-08-03T11:21:00.279Z,57
2022-08-03T11:22:00.417Z,57.7
2022-08-03T11:23:00.563Z,55.9
2022-08-03T11:24:05.307Z,55.2
2022-08-03T11:25:00.883Z,55.2
2022-08-03T11:26:01.041Z,53.6
2022-08-03T11:27:05.732Z,55.8
2022-08-03T11:28:00.344Z,54.7
2022-08-03T11:29:00.522Z,52.3
2022-08-03T11:30:00.662Z,54.6
2022-08-03T11:31:00.808Z,53.1
2022-08-03T11:32:00.959Z,54
2022-08-03T11:33:01.111Z,55.2
2022-08-03T11:34:00.265Z,54.2
2022-08-03T11:35:00.402Z,54.5
2022-08-03T11:36:00.560Z,55.5
2022-08-03T11:37:00.717Z,54.7
2022-08-03T11:38:03.004Z,55.2
2022-08-03T11:39:01.049Z,55
2022-08-03T11:40:02.802Z,56.1
2022-08-03T11:41:00.320Z,56.2
2022-08-03T11:42:00.475Z,54.9
2022-08-03T11:43:00.628Z,54.5
2022-08-03T11:44:00.808Z,54.4
2022-08-03T11:45:00.936Z,54
2022-08-03T11:46:01.089Z,52.9
2022-08-03T11:47:01.240Z,55.2
2022-08-03T11:48:00.397Z,53.3
2022-08-03T11:49:00.629Z,53.9
2022-08-03T11:50:00.758Z,58
2022-08-03T11:51:00.875Z,54.9
2022-08-03T11:52:01.019Z,53
2022-08-03T11:53:01.165Z,53
2022-08-03T11:54:00.319Z,53.3
2022-08-03T11:55:00.464Z,52.8
2022-08-03T11:56:00.643Z,53.9
2022-08-03T11:57:00.798Z,55.1
2022-08-03T11:59:13.119Z,55.2
2022-08-03T11:59:19.924Z,55.8
2022-08-03T12:00:01.222Z,54.5
2022-08-03T12:01:00.390Z,54.8
2022-08-03T12:02:00.542Z,54
2022-08-03T12:03:00.669Z,51.3
2022-08-03T12:04:00.832Z,51.5
2022-08-03T12:05:00.979Z,53.7
2022-08-03T12:06:01.123Z,51.5
2022-08-03T12:07:00.362Z,52.8
2022-08-03T12:08:04.149Z,52.1
2022-08-03T12:09:00.634Z,51.6
2022-08-03T12:10:00.769Z,52.6
2022-08-03T12:11:00.932Z,52.5
2022-08-03T12:12:01.337Z,53.5
2022-08-03T12:13:01.222Z,52.1
2022-08-03T12:14:44.106Z,54.4
2022-08-03T12:15:00.530Z,51.5
2022-08-03T12:16:00.689Z,53.8
2022-08-03T12:17:00.853Z,53.5
2022-08-03T12:18:00.996Z,54.5
2022-08-03T12:19:01.138Z,54.2
2022-08-03T12:20:00.287Z,54.8
2022-08-03T12:21:00.470Z,54.5
2022-08-03T12:22:00.634Z,53
2022-08-03T12:23:00.748Z,53.5
2022-08-03T12:24:00.962Z,54.1
2022-08-03T12:25:01.060Z,54.2
2022-08-03T12:26:01.219Z,53.9
2022-08-03T12:27:00.401Z,53
2022-08-03T12:28:00.518Z,52.7
2022-08-03T12:29:00.666Z,52.9
2022-08-03T12:30:00.814Z,53.5
2022-08-03T12:31:01.044Z,52.9
2022-08-03T12:32:01.167Z,52.2
2022-08-03T12:33:00.287Z,53
2022-08-03T12:34:00.442Z,52.7
2022-08-03T12:35:01.069Z,53
2022-08-03T12:36:00.745Z,53.6
2022-08-03T12:37:00.942Z,53.3
2022-08-03T12:38:01.062Z,53.7
2022-08-03T12:39:01.221Z,52.5
2022-08-03T12:40:05.119Z,55
2022-08-03T12:41:00.514Z,51.5
2022-08-03T12:42:00.679Z,52
2022-08-03T12:43:00.813Z,52.7
2022-08-03T12:44:00.964Z,52.2
2022-08-03T12:45:01.118Z,53.1
2022-08-03T12:46:00.269Z,52.4
2022-08-03T12:47:00.459Z,52.7
2022-08-03T12:48:00.591Z,50.9
2022-08-03T12:49:00.781Z,49.7
2022-08-03T12:50:00.915Z,51.1
2022-08-03T12:51:01.062Z,52.2
2022-08-03T12:52:06.921Z,51.9
2022-08-03T12:53:00.355Z,50.9
2022-08-03T12:54:00.513Z,54.1
2022-08-03T12:55:00.676Z,50.9
2022-08-03T12:56:05.058Z,52.3
2022-08-03T12:57:00.991Z,51.5
2022-08-03T12:58:01.125Z,50.3
2022-08-03T12:59:00.280Z,49.6
2022-08-03T13:00:00.430Z,48.2
2022-08-03T13:01:00.592Z,50.1
2022-08-03T13:02:00.919Z,49.5
2022-08-03T13:03:26.657Z,50.9
2022-08-03T13:04:01.277Z,50.5
2022-08-03T13:05:01.200Z,51.7
2022-08-03T13:06:00.353Z,52.2
2022-08-03T13:07:03.047Z,49.2
2022-08-03T13:08:00.649Z,53.2
2022-08-03T13:09:00.805Z,52.1
2022-08-03T13:10:04.882Z,52.4
2022-08-03T13:11:01.115Z,50.4
2022-08-03T13:12:02.496Z,52.7
2022-08-03T13:13:00.411Z,50
2022-08-03T13:14:00.563Z,49.6
2022-08-03T13:15:00.710Z,51.8
2022-08-03T13:16:00.900Z,51.8
2022-08-03T13:17:01.055Z,49.8
2022-08-03T13:18:01.193Z,50.2
2022-08-03T13:19:00.332Z,47.9
2022-08-03T13:20:00.495Z,50.2
2022-08-03T13:21:00.645Z,48.1
2022-08-03T13:22:04.029Z,50.3
2022-08-03T13:23:01.170Z,50.3
2022-08-03T13:24:01.115Z,49
2022-08-03T13:25:01.253Z,50.3
2022-08-03T13:26:00.410Z,48.2
2022-08-03T13:27:00.608Z,51.1